Time;durP1;ratioP1;P1;durP2;ratioP2;P2;SDS_P1;SDS_P2;PMS_P1;PMS_P2;Temp;Humidity;BMP_temperature;BMP_pressure;BME280_temperature;BME280_humidity;BME280_pressure;Samples;Min_cycle;Max_cycle;Signal;HPM_P1;HPM_P2
2024/03/24 00:01:33;;;;;;;;;;;;;;;4.41;nan;100015.19;5167241;23;20383;-68
2024/03/24 00:03:36;;;;;;;;;;;;;;;4.40;nan;100007.31;5167342;23;19919;-68
2024/03/24 00:05:37;;;;;;;;;;;;;;;4.39;nan;100006.50;5167468;23;19941;-68
2024/03/24 00:07:39;;;;;;;;;;;;;;;4.39;nan;100008.31;5167222;23;20252;-68
2024/03/24 00:09:43;;;;;;;;;;;;;;;4.37;nan;100002.28;5166619;23;19924;-67
2024/03/24 00:11:45;;;;;;;;;;;;;;;4.37;nan;100004.97;5167262;23;19919;-68
2024/03/24 00:13:46;;;;;;;;;;;;;;;4.35;nan;99998.94;5167474;23;20290;-68
2024/03/24 00:15:49;;;;;;;;;;;;;;;4.36;nan;99992.56;5167491;22;20282;-68
2024/03/24 00:17:50;;;;;;;;;;;;;;;4.33;nan;99991.06;5167262;23;19938;-68
2024/03/24 00:19:52;;;;;;;;;;;;;;;4.35;nan;99993.59;5167530;23;19919;-68
2024/03/24 00:21:53;;;;;;;;;;;;;;;4.35;nan;99991.75;5140392;23;19926;-68
2024/03/24 00:23:56;;;;;;;;;;;;;;;4.34;nan;99984.72;5167180;22;19919;-68
2024/03/24 00:25:58;;;;;;;;;;;;;;;4.34;nan;99987.38;5166761;23;19925;-67
2024/03/24 00:27:59;;;;;;;;;;;;;;;4.35;nan;99982.91;5166815;23;19920;-68
2024/03/24 00:30:02;;;;;;;;;;;;;;;4.32;nan;99978.69;5167135;23;19923;-68
2024/03/24 00:32:03;;;;;;;;;;;;;;;4.33;nan;99985.72;5166568;23;19927;-68
2024/03/24 00:34:05;;;;;;;;;;;;;;;4.33;nan;99977.72;5166864;23;20258;-68
2024/03/24 00:36:06;;;;;;;;;;;;;;;4.33;nan;99983.06;5167509;23;19926;-68
2024/03/24 00:38:08;;;;;;;;;;;;;;;4.32;nan;99978.69;5166809;23;19919;-68
2024/03/24 00:40:10;;;;;;;;;;;;;;;4.31;nan;99972.50;5166530;23;19926;-68
2024/03/24 00:42:13;;;;;;;;;;;;;;;4.31;nan;99980.53;5166414;23;19926;-68
2024/03/24 00:44:14;;;;;;;;;;;;;;;4.30;nan;99970.00;5166989;23;19930;-68
2024/03/24 00:46:17;;;;;;;;;;;;;;;4.29;nan;99977.16;5166816;23;19942;-68
2024/03/24 00:48:18;;;;;;;;;;;;;;;4.28;nan;99972.81;5166694;23;19926;-68
2024/03/24 00:50:20;;;;;;;;;;;;;;;4.26;nan;99969.47;5166477;23;19919;-68
2024/03/24 00:52:21;;;;;;;;;;;;;;;4.28;nan;99966.66;5166754;23;19933;-68
2024/03/24 00:54:23;;;;;;;;;;;;;;;4.26;nan;99964.13;5164890;23;19924;-68
2024/03/24 00:56:25;;;;;;;;;;;;;;;4.26;nan;99965.94;5166836;22;19942;-68
2024/03/24 00:58:28;;;;;;;;;;;;;;;4.26;nan;99968.63;5166589;23;20235;-68
2024/03/24 01:00:29;;;;;;;;;;;;;;;4.24;nan;99960.75;5166588;23;19946;-68
2024/03/24 01:02:31;;;;;;;;;;;;;;;4.24;nan;99959.91;5166623;23;19919;-68
2024/03/24 01:04:33;;;;;;;;;;;;;;;4.23;nan;99956.41;5166891;23;19924;-68
2024/03/24 01:06:35;;;;;;;;;;;;;;;4.23;nan;99958.22;5166751;23;19926;-68
2024/03/24 01:08:36;;;;;;;;;;;;;;;4.22;nan;99959.25;5164627;23;20278;-67
2024/03/24 01:10:38;;;;;;;;;;;;;;;4.21;nan;99955.72;5164857;23;19919;-68
2024/03/24 01:12:42;;;;;;;;;;;;;;;4.20;nan;99951.38;5166547;22;19919;-68
2024/03/24 01:14:45;;;;;;;;;;;;;;;4.21;nan;99947.69;5166656;22;19930;-68
2024/03/24 01:16:47;;;;;;;;;;;;;;;4.21;nan;99950.38;5167349;23;20209;-68
2024/03/24 01:18:49;;;;;;;;;;;;;;;4.21;nan;99946.88;5166916;23;20328;-68
2024/03/24 01:20:51;;;;;;;;;;;;;;;4.16;nan;99931.28;5167507;22;19920;-68
2024/03/24 01:22:53;;;;;;;;;;;;;;;4.20;nan;99938.03;5168047;22;19924;-68
2024/03/24 01:24:54;;;;;;;;;;;;;;;4.20;nan;99934.50;5168693;23;19920;-68
2024/03/24 01:26:57;;;;;;;;;;;;;;;4.19;nan;99936.31;5168876;23;19920;-68
2024/03/24 01:28:58;;;;;;;;;;;;;;;4.18;nan;99933.81;5168284;22;19926;-68
2024/03/24 01:31:02;;;;;;;;;;;;;;;4.18;nan;99926.63;5167575;23;20363;-68
2024/03/24 01:33:03;;;;;;;;;;;;;;;4.16;nan;99923.28;5168120;23;19930;-68
2024/03/24 01:35:06;;;;;;;;;;;;;;;4.15;nan;99921.59;5168607;23;19920;-68
2024/03/24 01:37:07;;;;;;;;;;;;;;;4.15;nan;99924.25;5168746;23;19939;-68
2024/03/24 01:39:09;;;;;;;;;;;;;;;4.14;nan;99919.94;5168457;23;19920;-68
2024/03/24 01:41:11;;;;;;;;;;;;;;;4.12;nan;99913.88;5167926;23;19919;-68
2024/03/24 01:43:13;;;;;;;;;;;;;;;4.12;nan;99916.56;5167480;23;20221;-68
2024/03/24 01:45:14;;;;;;;;;;;;;;;4.11;nan;99914.91;5168171;23;19926;-68
2024/03/24 01:47:17;;;;;;;;;;;;;;;4.10;nan;99919.38;5168521;23;19923;-68
2024/03/24 01:49:18;;;;;;;;;;;;;;;4.10;nan;99913.22;5168203;23;19930;-68
2024/03/24 01:51:21;;;;;;;;;;;;;;;4.09;nan;99911.53;5168382;23;20254;-68
2024/03/24 01:53:22;;;;;;;;;;;;;;;4.07;nan;99902.81;5168004;23;19919;-68
2024/03/24 01:55:24;;;;;;;;;;;;;;;4.06;nan;99902.00;5168226;23;19945;-68
2024/03/24 01:57:26;;;;;;;;;;;;;;;4.05;nan;99897.63;5166589;23;19919;-68
2024/03/24 01:59:28;;;;;;;;;;;;;;;4.05;nan;99899.47;5168010;22;19926;-68
2024/03/24 02:01:29;;;;;;;;;;;;;;;4.02;nan;99889.94;5167646;23;19919;-68
2024/03/24 02:03:32;;;;;;;;;;;;;;;4.01;nan;99893.59;5168252;23;20390;-68
2024/03/24 02:05:34;;;;;;;;;;;;;;;3.99;nan;99876.88;5168327;23;19923;-68
2024/03/24 02:07:36;;;;;;;;;;;;;;;3.96;nan;99875.34;5167846;23;20408;-68
2024/03/24 02:09:37;;;;;;;;;;;;;;;3.95;nan;99873.69;5167483;23;19923;-67
2024/03/24 02:11:39;;;;;;;;;;;;;;;3.94;nan;99872.00;5167975;22;20391;-68
2024/03/24 02:13:41;;;;;;;;;;;;;;;3.92;nan;99873.16;5167926;22;19926;-68
2024/03/24 02:15:43;;;;;;;;;;;;;;;3.91;nan;99876.81;5165953;23;20265;-68
2024/03/24 02:17:44;;;;;;;;;;;;;;;3.89;nan;99873.47;5167539;22;19924;-68
2024/03/24 02:19:48;;;;;;;;;;;;;;;3.86;nan;99869.28;5167803;23;19924;-68
2024/03/24 02:21:49;;;;;;;;;;;;;;;3.85;nan;99869.44;5167629;23;19920;-68
2024/03/24 02:23:52;;;;;;;;;;;;;;;3.84;nan;99876.63;5167810;23;19920;-68
2024/03/24 02:25:54;;;;;;;;;;;;;;;3.82;nan;99877.75;5167857;23;19923;-68
2024/03/24 02:27:56;;;;;;;;;;;;;;;3.80;nan;99867.22;5167779;23;20271;-68
2024/03/24 02:29:57;;;;;;;;;;;;;;;3.75;nan;99866.84;5167636;23;19923;-68
2024/03/24 02:31:59;;;;;;;;;;;;;;;3.74;nan;99865.16;5167675;23;19920;-68
2024/03/24 02:34:00;;;;;;;;;;;;;;;3.73;nan;99858.13;5167609;23;20240;-68
2024/03/24 02:36:03;;;;;;;;;;;;;;;3.71;nan;99860.13;5167936;23;19930;-68
2024/03/24 02:38:04;;;;;;;;;;;;;;;3.71;nan;99858.28;5165709;23;19923;-68
2024/03/24 02:40:09;;;;;;;;;;;;;;;3.71;nan;99854.78;5166498;22;19926;-68
2024/03/24 02:42:10;;;;;;;;;;;;;;;3.71;nan;99852.13;5167163;23;20340;-68
2024/03/24 02:44:12;;;;;;;;;;;;;;;3.70;nan;99856.63;5167648;23;19926;-68
2024/03/24 02:46:13;;;;;;;;;;;;;;;3.69;nan;99854.94;5168061;23;19920;-68
2024/03/24 02:48:16;;;;;;;;;;;;;;;3.70;nan;99856.63;5165480;23;19924;-68
2024/03/24 02:50:17;;;;;;;;;;;;;;;3.70;nan;99847.75;5167270;22;20354;-68
2024/03/24 02:52:19;;;;;;;;;;;;;;;3.70;nan;99853.09;5167518;22;19920;-68
2024/03/24 02:54:20;;;;;;;;;;;;;;;3.69;nan;99851.44;5167806;23;19923;-68
2024/03/24 02:56:24;;;;;;;;;;;;;;;3.70;nan;99850.44;5167805;23;20332;-68
2024/03/24 02:58:25;;;;;;;;;;;;;;;3.69;nan;99851.44;5167794;23;19919;-68
2024/03/24 03:00:28;;;;;;;;;;;;;;;3.69;nan;99849.59;5167797;22;20233;-68
2024/03/24 03:02:29;;;;;;;;;;;;;;;3.70;nan;99843.28;5167776;23;19926;-68
2024/03/24 03:04:31;;;;;;;;;;;;;;;3.72;nan;99835.13;5167861;23;19919;-68
2024/03/24 03:06:34;;;;;;;;;;;;;;;3.72;nan;99843.94;5167595;23;19919;-68
2024/03/24 03:08:36;;;;;;;;;;;;;;;3.72;nan;99830.59;5167576;23;19923;-68
2024/03/24 03:10:37;;;;;;;;;;;;;;;3.73;nan;99829.63;5167781;23;19919;-68
2024/03/24 03:12:42;;;;;;;;;;;;;;;3.71;nan;99823.56;5167486;23;19926;-68
2024/03/24 03:14:43;;;;;;;;;;;;;;;3.70;nan;99826.41;5167588;23;19919;-68
2024/03/24 03:16:44;;;;;;;;;;;;;;;3.70;nan;99824.59;5167958;23;19923;-67
2024/03/24 03:18:46;;;;;;;;;;;;;;;3.71;nan;99817.41;5167938;23;20243;-68
2024/03/24 03:20:48;;;;;;;;;;;;;;;3.70;nan;99821.06;5167605;22;19926;-68
2024/03/24 03:22:50;;;;;;;;;;;;;;;3.69;nan;99819.41;5167229;23;19923;-68
2024/03/24 03:24:51;;;;;;;;;;;;;;;3.68;nan;99813.19;5167612;23;19934;-68
2024/03/24 03:26:54;;;;;;;;;;;;;;;3.67;nan;99808.88;5164382;23;19930;-68
2024/03/24 03:28:56;;;;;;;;;;;;;;;3.67;nan;99805.34;5165302;22;20236;-68
2024/03/24 03:30:58;;;;;;;;;;;;;;;3.66;nan;99809.03;5165512;23;19926;-68
2024/03/24 03:32:59;;;;;;;;;;;;;;;3.66;nan;99815.19;5166809;23;19923;-68
2024/03/24 03:35:01;;;;;;;;;;;;;;;3.67;nan;99816.03;5166660;23;19924;-68
2024/03/24 03:37:03;;;;;;;;;;;;;;;3.64;nan;99811.84;5166384;22;19928;-68
2024/03/24 03:39:05;;;;;;;;;;;;;;;3.65;nan;99818.03;5166393;23;19928;-68
2024/03/24 03:41:07;;;;;;;;;;;;;;;3.63;nan;99807.50;5166156;23;20259;-68
2024/03/24 03:43:09;;;;;;;;;;;;;;;3.61;nan;99804.97;5166193;23;20259;-68
2024/03/24 03:45:14;;;;;;;;;;;;;;;3.61;nan;99806.81;5166474;23;20247;-68
2024/03/24 03:47:17;;;;;;;;;;;;;;;3.61;nan;99801.47;5166692;23;20371;-68
2024/03/24 03:49:18;;;;;;;;;;;;;;;3.61;nan;99802.31;5166543;23;20332;-67
2024/03/24 03:51:29;;;;;;;;;;;;;;;3.61;nan;99796.13;5166183;23;19934;-68
2024/03/24 03:53:36;;;;;;;;;;;;;;;3.61;nan;99796.97;5165755;23;20108;-68
2024/03/24 03:55:38;;;;;;;;;;;;;;;3.58;nan;99794.59;5166682;22;19947;-68
2024/03/24 03:57:40;;;;;;;;;;;;;;;3.57;nan;99798.28;5166849;23;20505;-68
2024/03/24 03:59:42;;;;;;;;;;;;;;;3.56;nan;99796.59;5166240;22;19923;-68
2024/03/24 04:01:45;;;;;;;;;;;;;;;3.56;nan;99798.44;5165742;23;19923;-68
2024/03/24 04:03:47;;;;;;;;;;;;;;;3.53;nan;99791.56;5166751;22;20354;-68
2024/03/24 04:05:48;;;;;;;;;;;;;;;3.55;nan;99796.75;5166710;23;19926;-67
2024/03/24 04:07:51;;;;;;;;;;;;;;;3.54;nan;99797.75;5166255;23;20267;-68
2024/03/24 04:09:53;;;;;;;;;;;;;;;3.54;nan;99787.06;5165641;23;20340;-68
2024/03/24 04:11:55;;;;;;;;;;;;;;;3.53;nan;99788.91;5166114;23;19920;-68
2024/03/24 04:13:56;;;;;;;;;;;;;;;3.52;nan;99791.72;5166374;23;19923;-68
2024/03/24 04:15:58;;;;;;;;;;;;;;;3.49;nan;99782.19;5166550;23;19933;-68
2024/03/24 04:18:01;;;;;;;;;;;;;;;3.49;nan;99784.03;5162900;23;20301;-68
2024/03/24 04:20:07;;;;;;;;;;;;;;;3.47;nan;99770.81;5165688;22;19923;-68
2024/03/24 04:22:08;;;;;;;;;;;;;;;3.48;nan;99780.53;5166269;23;20219;-68
2024/03/24 04:24:10;;;;;;;;;;;;;;;3.47;nan;99781.50;5165903;23;19925;-68
2024/03/24 04:26:11;;;;;;;;;;;;;;;3.48;nan;99774.31;5166290;23;19923;-68
2024/03/24 04:28:13;;;;;;;;;;;;;;;3.48;nan;99777.84;5165960;23;20293;-68
2024/03/24 04:30:14;;;;;;;;;;;;;;;3.48;nan;99777.00;5165065;23;19923;-68
2024/03/24 04:32:16;;;;;;;;;;;;;;;3.47;nan;99765.50;5165860;23;19924;-68
2024/03/24 04:34:19;;;;;;;;;;;;;;;3.46;nan;99774.47;5166558;23;20368;-69
2024/03/24 04:36:21;;;;;;;;;;;;;;;3.46;nan;99779.81;5166549;23;19930;-67
2024/03/24 04:38:23;;;;;;;;;;;;;;;3.45;nan;99771.97;5165979;22;19926;-68
2024/03/24 04:40:25;;;;;;;;;;;;;;;3.46;nan;99776.31;5165466;23;19919;-68
2024/03/24 04:42:27;;;;;;;;;;;;;;;3.45;nan;99772.81;5166026;22;19929;-69
2024/03/24 04:44:28;;;;;;;;;;;;;;;3.45;nan;99772.81;5166365;23;19923;-69
2024/03/24 04:46:31;;;;;;;;;;;;;;;3.46;nan;99781.66;5165733;23;19923;-68
2024/03/24 04:48:33;;;;;;;;;;;;;;;3.46;nan;99779.00;5166667;22;19925;-68
2024/03/24 04:50:36;;;;;;;;;;;;;;;3.46;nan;99774.47;5165792;23;19924;-68
2024/03/24 04:52:38;;;;;;;;;;;;;;;3.45;nan;99778.16;5165955;23;19926;-68
2024/03/24 04:54:40;;;;;;;;;;;;;;;3.45;nan;99771.97;5165598;23;19923;-68
2024/03/24 04:56:41;;;;;;;;;;;;;;;3.45;nan;99785.31;5165762;23;19924;-69
2024/03/24 04:58:42;;;;;;;;;;;;;;;3.45;nan;99772.81;5163960;23;19926;-69
2024/03/24 05:00:45;;;;;;;;;;;;;;;3.45;nan;99780.84;5165914;22;19920;-68
2024/03/24 05:02:46;;;;;;;;;;;;;;;3.45;nan;99769.28;5165904;23;19919;-68
2024/03/24 05:04:49;;;;;;;;;;;;;;;3.45;nan;99764.81;5166063;23;20632;-69
2024/03/24 05:06:52;;;;;;;;;;;;;;;3.45;nan;99772.81;5166182;23;19930;-68
2024/03/24 05:08:54;;;;;;;;;;;;;;;3.46;nan;99763.81;5166245;22;19924;-69
2024/03/24 05:10:56;;;;;;;;;;;;;;;3.46;nan;99762.97;5165071;23;19923;-68
2024/03/24 05:12:58;;;;;;;;;;;;;;;3.46;nan;99769.13;5163590;23;19923;-68
2024/03/24 05:14:59;;;;;;;;;;;;;;;3.47;nan;99756.66;5166609;22;20633;-69
2024/03/24 05:17:02;;;;;;;;;;;;;;;3.47;nan;99762.00;5166424;22;20259;-68
2024/03/24 05:19:05;;;;;;;;;;;;;;;3.47;nan;99759.31;5165771;23;19934;-68
2024/03/24 05:21:07;;;;;;;;;;;;;;;3.49;nan;99765.34;5165790;23;19927;-68
2024/03/24 05:23:09;;;;;;;;;;;;;;;3.50;nan;99761.69;5165705;23;19920;-69
2024/03/24 05:25:11;;;;;;;;;;;;;;;3.49;nan;99766.16;5166286;23;19938;-69
2024/03/24 05:27:15;;;;;;;;;;;;;;;3.50;nan;99757.16;5165507;23;19919;-67
2024/03/24 05:29:17;;;;;;;;;;;;;;;3.51;nan;99769.53;5166212;23;20411;-68
2024/03/24 05:31:18;;;;;;;;;;;;;;;3.51;nan;99769.53;5165611;23;19926;-68
2024/03/24 05:33:20;;;;;;;;;;;;;;;3.51;nan;99760.66;5165059;23;19923;-68
2024/03/24 05:35:22;;;;;;;;;;;;;;;3.51;nan;99758.84;5165908;23;19923;-68
2024/03/24 05:37:24;;;;;;;;;;;;;;;3.52;nan;99762.34;5165253;23;19926;-68
2024/03/24 05:39:27;;;;;;;;;;;;;;;3.51;nan;99758.84;5164773;23;19924;-68
2024/03/24 05:41:31;;;;;;;;;;;;;;;3.53;nan;99761.38;5163820;22;19923;-68
2024/03/24 05:43:32;;;;;;;;;;;;;;;3.51;nan;99756.19;5165446;22;19919;-68
2024/03/24 05:45:34;;;;;;;;;;;;;;;3.53;nan;99756.03;5166041;22;20275;-67
2024/03/24 05:47:36;;;;;;;;;;;;;;;3.52;nan;99755.19;5166315;23;20251;-67
2024/03/24 05:49:38;;;;;;;;;;;;;;;3.53;nan;99746.19;5165879;22;19926;-68
2024/03/24 05:51:40;;;;;;;;;;;;;;;3.53;nan;99751.53;5165202;22;20331;-68
2024/03/24 05:53:42;;;;;;;;;;;;;;;3.54;nan;99752.34;5166308;23;20246;-68
2024/03/24 05:55:44;;;;;;;;;;;;;;;3.54;nan;99753.22;5165861;23;19967;-68
2024/03/24 05:57:47;;;;;;;;;;;;;;;3.55;nan;99751.38;5165999;23;20355;-68
2024/03/24 05:59:49;;;;;;;;;;;;;;;3.56;nan;99742.38;5165577;23;19919;-68
2024/03/24 06:01:52;;;;;;;;;;;;;;;3.56;nan;99745.88;5165779;23;19926;-68
2024/03/24 06:03:53;;;;;;;;;;;;;;;3.57;nan;99746.69;5166233;23;20478;-68
2024/03/24 06:05:56;;;;;;;;;;;;;;;3.60;nan;99749.06;5166399;23;19924;-68
2024/03/24 06:07:57;;;;;;;;;;;;;;;3.60;nan;99749.91;5166685;23;19923;-68
2024/03/24 06:09:59;;;;;;;;;;;;;;;3.62;nan;99747.09;5166799;23;19919;-67
2024/03/24 06:12:02;;;;;;;;;;;;;;;3.63;nan;99750.59;5166454;23;19923;-68
2024/03/24 06:14:04;;;;;;;;;;;;;;;3.64;nan;99746.91;5167032;23;19923;-68
2024/03/24 06:16:06;;;;;;;;;;;;;;;3.66;nan;99750.28;5166700;23;19923;-68
2024/03/24 06:18:08;;;;;;;;;;;;;;;3.66;nan;99736.94;5167532;22;19920;-68
2024/03/24 06:20:10;;;;;;;;;;;;;;;3.67;nan;99735.91;5167429;22;19946;-68
2024/03/24 06:22:12;;;;;;;;;;;;;;;3.68;nan;99735.75;5167065;23;19920;-67
2024/03/24 06:24:13;;;;;;;;;;;;;;;3.69;nan;99729.44;5166691;23;19923;-67
2024/03/24 06:26:15;;;;;;;;;;;;;;;3.70;nan;99730.25;5167869;23;19930;-68
2024/03/24 06:28:17;;;;;;;;;;;;;;;3.70;nan;99728.44;5167936;23;20275;-68
2024/03/24 06:30:20;;;;;;;;;;;;;;;3.74;nan;99742.31;5165834;23;19924;-67
2024/03/24 06:32:21;;;;;;;;;;;;;;;3.75;nan;99730.66;5167191;22;19929;-67
2024/03/24 06:34:23;;;;;;;;;;;;;;;3.76;nan;99732.31;5168474;23;19926;-68
2024/03/24 06:36:24;;;;;;;;;;;;;;;3.78;nan;99725.00;5166601;23;19930;-68
2024/03/24 06:38:27;;;;;;;;;;;;;;;3.78;nan;99730.31;5167147;22;19930;-68
2024/03/24 06:40:29;;;;;;;;;;;;;;;3.80;nan;99733.66;5167173;23;19920;-67
2024/03/24 06:42:31;;;;;;;;;;;;;;;3.83;nan;99732.53;5167388;23;19926;-68
2024/03/24 06:44:37;;;;;;;;;;;;;;;3.84;nan;99731.50;5168022;23;19926;-68
2024/03/24 06:46:39;;;;;;;;;;;;;;;3.86;nan;99733.03;5166011;23;19920;-68
2024/03/24 06:48:40;;;;;;;;;;;;;;;3.89;nan;99737.25;5167835;22;19946;-67
2024/03/24 06:50:42;;;;;;;;;;;;;;;3.92;nan;99736.94;5165045;23;19923;-67
2024/03/24 06:52:43;;;;;;;;;;;;;;;3.94;nan;99740.25;5166693;22;19934;-68
2024/03/24 06:54:45;;;;;;;;;;;;;;;3.95;nan;99721.41;5166407;23;20365;-67
2024/03/24 06:56:47;;;;;;;;;;;;;;;3.97;nan;99738.09;5167338;23;19930;-68
2024/03/24 06:58:49;;;;;;;;;;;;;;;4.01;nan;99729.78;5166958;23;19924;-68
2024/03/24 07:00:52;;;;;;;;;;;;;;;4.03;nan;99736.63;5167362;23;19924;-68
2024/03/24 07:02:55;;;;;;;;;;;;;;;4.04;nan;99730.28;5166776;23;19925;-68
2024/03/24 07:04:57;;;;;;;;;;;;;;;4.07;nan;99729.13;5167840;23;19923;-68
2024/03/24 07:06:59;;;;;;;;;;;;;;;4.09;nan;99733.34;5167886;23;19923;-68
2024/03/24 07:09:00;;;;;;;;;;;;;;;4.11;nan;99725.16;5167112;23;19926;-68
2024/03/24 07:11:02;;;;;;;;;;;;;;;4.13;nan;99726.66;5166810;23;19937;-68
2024/03/24 07:13:03;;;;;;;;;;;;;;;4.15;nan;99721.16;5167477;23;19926;-68
2024/03/24 07:15:08;;;;;;;;;;;;;;;4.18;nan;99720.00;5166969;22;21496;-68
2024/03/24 07:17:11;;;;;;;;;;;;;;;4.19;nan;99722.50;5167076;23;19919;-68
2024/03/24 07:19:13;;;;;;;;;;;;;;;4.21;nan;99725.84;5166707;22;19924;-68
2024/03/24 07:21:14;;;;;;;;;;;;;;;4.23;nan;99725.69;5167017;23;19920;-68
2024/03/24 07:23:16;;;;;;;;;;;;;;;4.23;nan;99713.19;5167112;23;19919;-68
2024/03/24 07:25:17;;;;;;;;;;;;;;;4.26;nan;99715.53;5167412;23;19926;-68
2024/03/24 07:27:19;;;;;;;;;;;;;;;4.27;nan;99722.53;5167385;23;19919;-68
2024/03/24 07:29:20;;;;;;;;;;;;;;;4.30;nan;99718.72;5167763;23;19926;-68
2024/03/24 07:31:23;;;;;;;;;;;;;;;4.31;nan;99718.56;5166917;23;19923;-68
2024/03/24 07:33:25;;;;;;;;;;;;;;;4.33;nan;99718.41;5167189;23;20247;-68
2024/03/24 07:35:27;;;;;;;;;;;;;;;4.35;nan;99713.72;5167565;22;20090;-68
2024/03/24 07:37:28;;;;;;;;;;;;;;;4.39;nan;99722.25;5167608;23;19930;-68
2024/03/24 07:39:31;;;;;;;;;;;;;;;4.40;nan;99708.72;5167130;23;19920;-68
2024/03/24 07:41:32;;;;;;;;;;;;;;;4.43;nan;99715.59;5166837;22;19919;-68
2024/03/24 07:43:34;;;;;;;;;;;;;;;4.45;nan;99725.13;5165305;23;19926;-68
2024/03/24 07:45:35;;;;;;;;;;;;;;;4.49;nan;99709.59;5167878;22;19926;-68
2024/03/24 07:47:36;;;;;;;;;;;;;;;4.51;nan;99719.13;5167678;23;19926;-68
2024/03/24 07:49:40;;;;;;;;;;;;;;;4.54;nan;99707.25;5166710;23;19923;-67
2024/03/24 07:51:44;;;;;;;;;;;;;;;4.57;nan;99706.94;5163594;23;20366;-68
2024/03/24 07:53:48;;;;;;;;;;;;;;;4.59;nan;99712.97;5166271;22;19923;-69
2024/03/24 07:55:49;;;;;;;;;;;;;;;4.63;nan;99711.63;5165933;22;19991;-68
2024/03/24 07:57:51;;;;;;;;;;;;;;;4.66;nan;99694.41;5166541;23;19991;-69
2024/03/24 07:59:53;;;;;;;;;;;;;;;4.70;nan;99703.78;5166624;23;19923;-68
2024/03/24 08:01:55;;;;;;;;;;;;;;;4.72;nan;99691.09;5166944;23;20268;-67
2024/03/24 08:03:56;;;;;;;;;;;;;;;4.76;nan;99686.22;5165315;23;20336;-68
2024/03/24 08:05:59;;;;;;;;;;;;;;;4.78;nan;99694.91;5167275;23;19929;-68
2024/03/24 08:08:01;;;;;;;;;;;;;;;4.82;nan;99704.31;5166790;23;20415;-67
2024/03/24 08:10:03;;;;;;;;;;;;;;;4.85;nan;99687.91;5166545;23;19923;-69
2024/03/24 08:12:04;;;;;;;;;;;;;;;4.88;nan;99682.25;5166728;23;20259;-68
2024/03/24 08:14:06;;;;;;;;;;;;;;;4.92;nan;99678.25;5168010;23;20340;-67
2024/03/24 08:16:08;;;;;;;;;;;;;;;4.95;nan;99685.91;5167107;23;19926;-68
2024/03/24 08:18:10;;;;;;;;;;;;;;;4.99;nan;99678.41;5167903;23;20336;-67
2024/03/24 08:20:11;;;;;;;;;;;;;;;5.03;nan;99682.41;5167126;23;19934;-68
2024/03/24 08:22:18;;;;;;;;;;;;;;;5.07;nan;99680.25;5163545;23;19919;-68
2024/03/24 08:24:20;;;;;;;;;;;;;;;5.10;nan;99675.38;5165437;22;19919;-67
2024/03/24 08:26:22;;;;;;;;;;;;;;;5.14;nan;99673.19;5168332;23;19930;-68
2024/03/24 08:28:24;;;;;;;;;;;;;;;5.18;nan;99669.19;5165582;23;19931;-67
2024/03/24 08:30:26;;;;;;;;;;;;;;;5.22;nan;99660.66;5164246;23;19923;-67
2024/03/24 08:32:28;;;;;;;;;;;;;;;5.27;nan;99660.16;5168486;22;19945;-67
2024/03/24 08:34:30;;;;;;;;;;;;;;;5.33;nan;99680.91;5168771;23;19930;-67
2024/03/24 08:36:32;;;;;;;;;;;;;;;5.37;nan;99674.19;5163900;23;19939;-68
2024/03/24 08:38:35;;;;;;;;;;;;;;;5.43;nan;99661.16;5165455;22;19919;-68
2024/03/24 08:40:37;;;;;;;;;;;;;;;5.48;nan;99664.13;5164098;23;20283;-67
2024/03/24 08:42:39;;;;;;;;;;;;;;;5.53;nan;99659.94;5165830;22;19930;-67
2024/03/24 08:44:42;;;;;;;;;;;;;;;5.59;nan;99669.13;5164730;23;20499;-67
2024/03/24 08:46:45;;;;;;;;;;;;;;;5.62;nan;99654.56;5164936;22;20342;-68
2024/03/24 08:48:49;;;;;;;;;;;;;;;5.66;nan;99662.09;5165107;23;19930;-67
2024/03/24 08:50:55;;;;;;;;;;;;;;;5.71;nan;99661.56;5164510;22;19919;-67
2024/03/24 08:52:57;;;;;;;;;;;;;;;5.76;nan;99669.94;5164519;23;20101;-67
2024/03/24 08:55:01;;;;;;;;;;;;;;;5.80;nan;99651.66;5163409;22;19930;-67
2024/03/24 08:57:02;;;;;;;;;;;;;;;5.84;nan;99651.13;5165346;23;19924;-68
2024/03/24 08:59:07;;;;;;;;;;;;;;;5.89;nan;99646.13;5162081;23;19965;-69
2024/03/24 09:01:11;;;;;;;;;;;;;;;5.95;nan;99649.91;5164526;23;19930;-67
2024/03/24 09:03:15;;;;;;;;;;;;;;;6.01;nan;99637.72;5162616;23;20014;-66
2024/03/24 09:05:19;;;;;;;;;;;;;;;6.08;nan;99642.22;5165180;22;19930;-67
2024/03/24 09:07:22;;;;;;;;;;;;;;;6.14;nan;99646.00;5164327;23;19923;-67
2024/03/24 09:09:23;;;;;;;;;;;;;;;6.19;nan;99646.34;5164266;23;19924;-67
2024/03/24 09:11:27;;;;;;;;;;;;;;;6.23;nan;99644.13;5163814;23;19926;-67
2024/03/24 09:13:28;;;;;;;;;;;;;;;6.26;nan;99644.63;5164467;23;19923;-67
2024/03/24 09:15:30;;;;;;;;;;;;;;;6.32;nan;99648.44;5165043;23;20352;-67
2024/03/24 09:17:33;;;;;;;;;;;;;;;6.37;nan;99653.28;5164728;22;19919;-68
2024/03/24 09:19:34;;;;;;;;;;;;;;;6.41;nan;99646.53;5163491;23;20253;-68
2024/03/24 09:21:36;;;;;;;;;;;;;;;6.44;nan;99627.41;5164388;23;19924;-67
2024/03/24 09:23:38;;;;;;;;;;;;;;;6.47;nan;99627.91;5164486;23;19930;-67
2024/03/24 09:25:40;;;;;;;;;;;;;;;6.50;nan;99645.47;5136830;23;19930;-67
2024/03/24 09:27:45;;;;;;;;;;;;;;;6.54;nan;99630.72;5163814;22;20106;-68
2024/03/24 09:29:47;;;;;;;;;;;;;;;6.56;nan;99636.72;5163962;23;19923;-67
2024/03/24 09:31:49;;;;;;;;;;;;;;;6.59;nan;99643.59;5162972;23;19930;-67
2024/03/24 09:33:51;;;;;;;;;;;;;;;6.61;nan;99641.56;5164349;22;20258;-67
2024/03/24 09:35:53;;;;;;;;;;;;;;;6.62;nan;99638.69;5163297;23;19924;-68
2024/03/24 09:37:59;;;;;;;;;;;;;;;6.65;nan;99634.84;5162161;23;20316;-69
2024/03/24 09:40:00;;;;;;;;;;;;;;;6.66;nan;99631.97;5187443;22;20339;-69
2024/03/24 09:42:03;;;;;;;;;;;;;;;6.68;nan;99642.53;5191008;22;19923;-69
2024/03/24 09:44:06;;;;;;;;;;;;;;;6.68;nan;99613.84;5191745;22;20251;-72
2024/03/24 09:46:08;;;;;;;;;;;;;;;6.72;nan;99621.53;5191832;22;19923;-70
2024/03/24 09:48:10;;;;;;;;;;;;;;;6.72;nan;99621.53;5165116;23;19935;-70
2024/03/24 09:50:15;;;;;;;;;;;;;;;6.72;nan;99614.31;5190607;22;19965;-71
2024/03/24 09:52:16;;;;;;;;;;;;;;;6.73;nan;99626.72;5191284;22;19919;-70
2024/03/24 09:54:17;;;;;;;;;;;;;;;6.74;nan;99619.50;5191481;22;19930;-72
2024/03/24 09:56:22;;;;;;;;;;;;;;;6.75;nan;99621.16;5191442;22;19931;-70
2024/03/24 09:58:26;;;;;;;;;;;;;;;6.75;nan;99621.16;5191540;22;19933;-69
2024/03/24 10:00:30;;;;;;;;;;;;;;;6.75;nan;99623.84;5190028;22;20308;-69
2024/03/24 10:02:31;;;;;;;;;;;;;;;6.75;nan;99627.34;5191443;22;20362;-69
2024/03/24 10:04:35;;;;;;;;;;;;;;;6.74;nan;99625.72;5191599;22;19966;-69
2024/03/24 10:06:37;;;;;;;;;;;;;;;6.75;nan;99646.16;5190521;22;19923;-69
2024/03/24 10:08:39;;;;;;;;;;;;;;;6.75;nan;99658.75;5189015;22;20254;-70
2024/03/24 10:10:44;;;;;;;;;;;;;;;6.74;nan;99617.66;5189236;22;20343;-70
2024/03/24 10:12:52;;;;;;;;;;;;;;;6.74;nan;99616.81;5137915;23;20340;-69
2024/03/24 10:14:54;;;;;;;;;;;;;;;6.74;nan;99631.06;5189989;22;19926;-69
2024/03/24 10:17:05;;;;;;;;;;;;;;;6.74;nan;99619.50;5190689;22;19923;-70
2024/03/24 10:19:09;;;;;;;;;;;;;;;6.75;nan;99624.69;5189969;22;19930;-69
2024/03/24 10:21:11;;;;;;;;;;;;;;;6.75;nan;99648.81;5190033;22;19919;-71
2024/03/24 10:23:12;;;;;;;;;;;;;;;6.73;nan;99652.72;5191403;22;19946;-70
2024/03/24 10:25:18;;;;;;;;;;;;;;;6.70;nan;99651.22;5191580;22;19920;-71
2024/03/24 10:27:22;;;;;;;;;;;;;;;6.68;nan;99632.63;5191511;22;20290;-70
2024/03/24 10:29:24;;;;;;;;;;;;;;;6.69;nan;99636.13;5190599;22;19919;-68
2024/03/24 10:31:25;;;;;;;;;;;;;;;6.68;nan;99626.44;5189603;22;19919;-68
2024/03/24 10:33:31;;;;;;;;;;;;;;;6.66;nan;99628.44;5190198;22;19919;-68
2024/03/24 10:35:33;;;;;;;;;;;;;;;6.66;nan;99623.06;5191168;22;19926;-68
2024/03/24 10:37:38;;;;;;;;;;;;;;;6.64;nan;99622.41;5163445;23;20301;-68
2024/03/24 10:39:39;;;;;;;;;;;;;;;6.63;nan;99647.56;5189754;22;19933;-69
2024/03/24 10:41:41;;;;;;;;;;;;;;;6.61;nan;99630.81;5190588;22;19929;-68
2024/03/24 10:43:43;;;;;;;;;;;;;;;6.60;nan;99631.81;5191857;22;19925;-68
2024/03/24 10:45:45;;;;;;;;;;;;;;;6.57;nan;99638.41;5192118;22;19919;-69
2024/03/24 17:09:50;;;;;;;;;;;;;;;7.39;nan;99416.59;5164781;23;19954;-70
2024/03/24 17:11:54;;;;;;;;;;;;;;;7.39;nan;99411.25;5166034;23;19920;-69
2024/03/24 17:13:56;;;;;;;;;;;;;;;7.38;nan;99407.72;5165797;23;20256;-69
2024/03/24 17:15:57;;;;;;;;;;;;;;;7.36;nan;99425.88;5165880;23;19930;-69
2024/03/24 17:17:59;;;;;;;;;;;;;;;7.35;nan;99424.22;5163757;23;19920;-69
2024/03/24 17:20:01;;;;;;;;;;;;;;;7.34;nan;99427.09;5164710;23;19924;-70
2024/03/24 17:22:06;;;;;;;;;;;;;;;7.32;nan;99410.31;5165510;23;19920;-69
2024/03/24 17:24:07;;;;;;;;;;;;;;;7.24;nan;99397.00;5164391;23;19932;-69